sensor_id;sensor_type;location;lat;lon;timestamp;pressure;altitude;pressure_sealevel;temperature;humidity
74437;BME280;62868;52.360;30.424;2022-11-20T00:04:10;1029.5;;;0.4;64.4
74437;BME280;62868;52.360;30.424;2022-11-20T00:09:48;1029.6;;;0.4;64.4
74437;BME280;62868;52.360;30.424;2022-11-20T00:14:02;1029.6;;;0.4;64.4
74437;BME280;62868;52.360;30.424;2022-11-20T00:19:22;1029.6;;;0.4;64.4
74437;BME280;62868;52.360;30.424;2022-11-20T00:24:02;1029.6;;;0.3;64.3
74437;BME280;62868;52.360;30.424;2022-11-20T00:29:04;1029.6;;;0.2;64.2
74437;BME280;62868;52.360;30.424;2022-11-20T00:34:46;1029.7;;;0.2;64.2
74437;BME280;62868;52.360;30.424;2022-11-20T00:39:02;1029.9;;;0.2;64.2
74437;BME280;62868;52.360;30.424;2022-11-20T00:44:36;1029.9;;;0.2;64.1
74437;BME280;62868;52.360;30.424;2022-11-20T00:49:34;1029.8;;;0.2;64.1
74437;BME280;62868;52.360;30.424;2022-11-20T00:54:48;1029.7;;;0.1;64
74437;BME280;62868;52.360;30.424;2022-11-20T00:59:12;1029.8;;;0.1;64
74437;BME280;62868;52.360;30.424;2022-11-20T01:04:32;1029.8;;;0.1;64
74437;BME280;62868;52.360;30.424;2022-11-20T01:09:03;1029.8;;;0.1;64
74437;BME280;62868;52.360;30.424;2022-11-20T01:14:46;1030;;;0.1;64
74437;BME280;62868;52.360;30.424;2022-11-20T01:19:16;1029.9;;;0.1;63.9
74437;BME280;62868;52.360;30.424;2022-11-20T01:24:34;1029.9;;;0;63.9
74437;BME280;62868;52.360;30.424;2022-11-20T01:29:03;1030;;;0;63.8
74437;BME280;62868;52.360;30.424;2022-11-20T01:34:15;1030;;;0;63.8
74437;BME280;62868;52.360;30.424;2022-11-20T01:39:26;1030;;;0;63.8
74437;BME280;62868;52.360;30.424;2022-11-20T01:44:43;1030.1;;;0;63.8
74437;BME280;62868;52.360;30.424;2022-11-20T01:49:38;1030.1;;;-0.1;63.7
74437;BME280;62868;52.360;30.424;2022-11-20T01:54:40;1030.1;;;-0.1;63.7
74437;BME280;62868;52.360;30.424;2022-11-20T01:59:15;1030.1;;;-0.1;63.7
74437;BME280;62868;52.360;30.424;2022-11-20T02:04:52;1030.1;;;-0.1;63.6
74437;BME280;62868;52.360;30.424;2022-11-20T02:09:52;1030.1;;;-0.2;63.6
74437;BME280;62868;52.360;30.424;2022-11-20T02:14:24;1030.2;;;-0.2;63.5
74437;BME280;62868;52.360;30.424;2022-11-20T02:19:36;1030.3;;;-0.2;63.6
74437;BME280;62868;52.360;30.424;2022-11-20T02:24:12;1030.4;;;-0.1;63.5
74437;BME280;62868;52.360;30.424;2022-11-20T02:29:47;1030.4;;;-0.1;63.6
74437;BME280;62868;52.360;30.424;2022-11-20T02:34:14;1030.5;;;-0.1;63.6
74437;BME280;62868;52.360;30.424;2022-11-20T02:39:36;1030.6;;;-0.1;63.6
74437;BME280;62868;52.360;30.424;2022-11-20T02:44:22;1030.8;;;-0.1;63.7
74437;BME280;62868;52.360;30.424;2022-11-20T02:49:14;1030.9;;;0;63.7
74437;BME280;62868;52.360;30.424;2022-11-20T02:54:14;1030.9;;;0;63.6
74437;BME280;62868;52.360;30.424;2022-11-20T02:59:36;1030.9;;;0;63.6
74437;BME280;62868;52.360;30.424;2022-11-20T03:04:36;1030.9;;;0;63.5
74437;BME280;62868;52.360;30.424;2022-11-20T03:09:36;1030.9;;;0;63.5
74437;BME280;62868;52.360;30.424;2022-11-20T03:14:26;1030.8;;;0;63.4
74437;BME280;62868;52.360;30.424;2022-11-20T03:19:50;1030.9;;;0;63.4
74437;BME280;62868;52.360;30.424;2022-11-20T03:24:50;1031.1;;;0;63.4
74437;BME280;62868;52.360;30.424;2022-11-20T03:29:50;1031.3;;;0;63.4
74437;BME280;62868;52.360;30.424;2022-11-20T03:34:34;1031.2;;;0;63.2
74437;BME280;62868;52.360;30.424;2022-11-20T03:39:14;1031.3;;;-0.1;63.2
74437;BME280;62868;52.360;30.424;2022-11-20T03:44:48;1031.3;;;-0.1;63.1
74437;BME280;62868;52.360;30.424;2022-11-20T03:49:26;1031.4;;;0;63
74437;BME280;62868;52.360;30.424;2022-11-20T03:54:36;1031.3;;;0;63
74437;BME280;62868;52.360;30.424;2022-11-20T03:59:14;1031.4;;;0;63
74437;BME280;62868;52.360;30.424;2022-11-20T04:04:14;1031.4;;;0;62.9
74437;BME280;62868;52.360;30.424;2022-11-20T04:09:24;1031.4;;;0.1;62.8
74437;BME280;62868;52.360;30.424;2022-11-20T04:14:36;1031.4;;;0;62.8
74437;BME280;62868;52.360;30.424;2022-11-20T04:19:36;1031.6;;;0;62.7
74437;BME280;62868;52.360;30.424;2022-11-20T04:24:34;1031.5;;;-0.1;62.7
74437;BME280;62868;52.360;30.424;2022-11-20T04:29:02;1031.6;;;-0.1;62.6
74437;BME280;62868;52.360;30.424;2022-11-20T04:34:50;1031.6;;;-0.1;62.5
74437;BME280;62868;52.360;30.424;2022-11-20T04:39:48;1031.5;;;-0.1;62.5
74437;BME280;62868;52.360;30.424;2022-11-20T04:44:22;1031.5;;;-0.1;62.4
74437;BME280;62868;52.360;30.424;2022-11-20T04:49:22;1031.4;;;-0.2;62.4
74437;BME280;62868;52.360;30.424;2022-11-20T04:54:02;1031.4;;;-0.2;62.4
74437;BME280;62868;52.360;30.424;2022-11-20T04:59:50;1031.4;;;-0.1;62.4
74437;BME280;62868;52.360;30.424;2022-11-20T05:04:26;1031.5;;;-0.1;62.4
74437;BME280;62868;52.360;30.424;2022-11-20T05:09:36;1031.5;;;-0.1;62.4
74437;BME280;62868;52.360;30.424;2022-11-20T05:14:22;1031.6;;;-0.1;62.3
74437;BME280;62868;52.360;30.424;2022-11-20T05:19:14;1031.6;;;-0.1;62.3
74437;BME280;62868;52.360;30.424;2022-11-20T05:24:14;1031.5;;;-0.1;62.2
74437;BME280;62868;52.360;30.424;2022-11-20T05:29:36;1031.3;;;-0.1;62.1
74437;BME280;62868;52.360;30.424;2022-11-20T05:34:34;1031.3;;;0;62.1
74437;BME280;62868;52.360;30.424;2022-11-20T05:39:36;1031.2;;;0;62
74437;BME280;62868;52.360;30.424;2022-11-20T05:44:14;1031.2;;;-0.1;62
74437;BME280;62868;52.360;30.424;2022-11-20T05:49:48;1031.1;;;-0.1;61.9
74437;BME280;62868;52.360;30.424;2022-11-20T05:54:48;1031.1;;;0;61.8
74437;BME280;62868;52.360;30.424;2022-11-20T05:59:22;1031.2;;;0;61.7
74437;BME280;62868;52.360;30.424;2022-11-20T06:04:36;1031.2;;;0.1;61.6
74437;BME280;62868;52.360;30.424;2022-11-20T06:09:14;1031.2;;;0.3;61.5
74437;BME280;62868;52.360;30.424;2022-11-20T06:14:50;1031.2;;;0.3;61.4
74437;BME280;62868;52.360;30.424;2022-11-20T06:19:26;1031.1;;;0.4;61.4
74437;BME280;62868;52.360;30.424;2022-11-20T06:24:36;1031;;;0.5;61.2
74437;BME280;62868;52.360;30.424;2022-11-20T06:29:22;1031.1;;;0.6;61.1
74437;BME280;62868;52.360;30.424;2022-11-20T06:34:14;1031.2;;;0.6;61
74437;BME280;62868;52.360;30.424;2022-11-20T06:39:14;1031.4;;;0.7;60.9
74437;BME280;62868;52.360;30.424;2022-11-20T06:44:26;1031.4;;;0.7;60.8
74437;BME280;62868;52.360;30.424;2022-11-20T06:49:16;1031.4;;;0.7;60.6
74437;BME280;62868;52.360;30.424;2022-11-20T06:54:38;1031.5;;;0.9;60.5
74437;BME280;62868;52.360;30.424;2022-11-20T06:59:24;1031.6;;;1;60.4
74437;BME280;62868;52.360;30.424;2022-11-20T07:04:52;1031.6;;;1;60.4
74437;BME280;62868;52.360;30.424;2022-11-20T07:09:52;1031.6;;;0.9;60.4
74437;BME280;62868;52.360;30.424;2022-11-20T07:14:02;1031.7;;;0.8;60.4
74437;BME280;62868;52.360;30.424;2022-11-20T07:19:38;1031.8;;;0.7;60.4
74437;BME280;62868;52.360;30.424;2022-11-20T07:24:14;1031.8;;;0.6;60.4
74437;BME280;62868;52.360;30.424;2022-11-20T07:29:52;1031.8;;;0.7;60.4
74437;BME280;62868;52.360;30.424;2022-11-20T07:34:26;1031.8;;;0.8;60.3
74437;BME280;62868;52.360;30.424;2022-11-20T07:39:52;1031.8;;;0.7;60.3
74437;BME280;62868;52.360;30.424;2022-11-20T07:44:24;1031.8;;;0.6;60.3
74437;BME280;62868;52.360;30.424;2022-11-20T07:49:14;1031.8;;;0.6;60.3
74437;BME280;62868;52.360;30.424;2022-11-20T07:54:26;1031.6;;;0.5;60.3
74437;BME280;62868;52.360;30.424;2022-11-20T07:59:36;1031.6;;;0.3;60.4
74437;BME280;62868;52.360;30.424;2022-11-20T08:04:16;1031.6;;;0.1;60.5
74437;BME280;62868;52.360;30.424;2022-11-20T08:09:38;1031.5;;;0;60.5
74437;BME280;62868;52.360;30.424;2022-11-20T08:14:26;1031.6;;;0;60.5
74437;BME280;62868;52.360;30.424;2022-11-20T08:19:50;1031.5;;;0;60.5
74437;BME280;62868;52.360;30.424;2022-11-20T08:24:50;1031.4;;;0.1;60.5
74437;BME280;62868;52.360;30.424;2022-11-20T08:29:22;1031.4;;;0.1;60.4
74437;BME280;62868;52.360;30.424;2022-11-20T08:34:24;1031.3;;;0.2;60.3
74437;BME280;62868;52.360;30.424;2022-11-20T08:39:02;1031.4;;;0.4;60.1
74437;BME280;62868;52.360;30.424;2022-11-20T08:44:52;1031.3;;;0.5;59.9
74437;BME280;62868;52.360;30.424;2022-11-20T08:49:02;1031.2;;;0.7;59.9
74437;BME280;62868;52.360;30.424;2022-11-20T08:54:50;1031;;;0.8;59.8
74437;BME280;62868;52.360;30.424;2022-11-20T08:59:32;1031;;;1;59.6
74437;BME280;62868;52.360;30.424;2022-11-20T09:04:02;1031;;;1.1;59.6
74437;BME280;62868;52.360;30.424;2022-11-20T09:09:50;1030.9;;;1.1;59.5
74437;BME280;62868;52.360;30.424;2022-11-20T09:14:38;1030.8;;;1.1;59.4
74437;BME280;62868;52.360;30.424;2022-11-20T09:19:50;1030.8;;;1.3;59.3
74437;BME280;62868;52.360;30.424;2022-11-20T09:24:50;1030.8;;;1.3;59.2
74437;BME280;62868;52.360;30.424;2022-11-20T09:29:02;1030.9;;;1.3;59.1
74437;BME280;62868;52.360;30.424;2022-11-20T09:34:32;1031;;;1.2;59.1
74437;BME280;62868;52.360;30.424;2022-11-20T09:39:22;1031;;;1.1;59.1
74437;BME280;62868;52.360;30.424;2022-11-20T09:44:40;1031.1;;;1.1;59
74437;BME280;62868;52.360;30.424;2022-11-20T09:49:26;1031;;;1.3;59
74437;BME280;62868;52.360;30.424;2022-11-20T09:54:06;1031;;;1.5;59
74437;BME280;62868;52.360;30.424;2022-11-20T09:59:29;1030.9;;;1.5;59
74437;BME280;62868;52.360;30.424;2022-11-20T10:04:49;1031;;;1.5;58.9
74437;BME280;62868;52.360;30.424;2022-11-20T10:09:24;1031;;;1.5;59
74437;BME280;62868;52.360;30.424;2022-11-20T10:14:52;1030.9;;;1.5;59
74437;BME280;62868;52.360;30.424;2022-11-20T10:19:06;1031.1;;;1.4;59.1
74437;BME280;62868;52.360;30.424;2022-11-20T10:24:38;1031;;;1.4;59.1
74437;BME280;62868;52.360;30.424;2022-11-20T10:29:36;1031;;;1.3;59.1
74437;BME280;62868;52.360;30.424;2022-11-20T10:34:49;1031;;;1.3;59
74437;BME280;62868;52.360;30.424;2022-11-20T10:39:51;1030.9;;;1.5;58.9
74437;BME280;62868;52.360;30.424;2022-11-20T10:44:15;1030.9;;;1.6;58.8
74437;BME280;62868;52.360;30.424;2022-11-20T10:49:36;1030.8;;;1.5;58.9
74437;BME280;62868;52.360;30.424;2022-11-20T10:54:27;1030.9;;;1.6;58.8
74437;BME280;62868;52.360;30.424;2022-11-20T10:59:39;1030.7;;;1.6;58.8
74437;BME280;62868;52.360;30.424;2022-11-20T11:04:26;1030.8;;;1.6;58.8
74437;BME280;62868;52.360;30.424;2022-11-20T11:09:13;1030.8;;;1.4;59
74437;BME280;62868;52.360;30.424;2022-11-20T11:14:24;1030.9;;;1.3;59.1
74437;BME280;62868;52.360;30.424;2022-11-20T11:20:14;1030.7;;;1;59.3
74437;BME280;62868;52.360;30.424;2022-11-20T11:24:03;1030.6;;;1;59.3
74437;BME280;62868;52.360;30.424;2022-11-20T11:29:48;1030.7;;;1;59.3
74437;BME280;62868;52.360;30.424;2022-11-20T11:34:04;1030.8;;;1;59.3
74437;BME280;62868;52.360;30.424;2022-11-20T11:39:36;1030.7;;;1.1;59.3
74437;BME280;62868;52.360;30.424;2022-11-20T11:44:43;1030.6;;;1;59.3
74437;BME280;62868;52.360;30.424;2022-11-20T11:49:48;1030.6;;;0.9;59.4
74437;BME280;62868;52.360;30.424;2022-11-20T11:54:51;1030.6;;;0.9;59.5
74437;BME280;62868;52.360;30.424;2022-11-20T11:59:15;1030.6;;;0.8;59.6
74437;BME280;62868;52.360;30.424;2022-11-20T12:04:40;1030.4;;;0.6;59.7
74437;BME280;62868;52.360;30.424;2022-11-20T12:09:03;1030.4;;;0.5;59.8
74437;BME280;62868;52.360;30.424;2022-11-20T12:14:37;1030.5;;;0.6;59.7
74437;BME280;62868;52.360;30.424;2022-11-20T12:19:50;1030.6;;;0.6;59.8
74437;BME280;62868;52.360;30.424;2022-11-20T12:24:06;1030.6;;;0.6;59.9
74437;BME280;62868;52.360;30.424;2022-11-20T12:29:28;1030.6;;;0.5;60
74437;BME280;62868;52.360;30.424;2022-11-20T12:34:52;1030.5;;;0.3;60.2
74437;BME280;62868;52.360;30.424;2022-11-20T12:39:29;1030.4;;;0.2;60.2
74437;BME280;62868;52.360;30.424;2022-11-20T12:44:53;1030.2;;;0.1;60.3
74437;BME280;62868;52.360;30.424;2022-11-20T12:49:27;1030.3;;;0;60.3
74437;BME280;62868;52.360;30.424;2022-11-20T12:54:28;1030.3;;;-0.1;60.4
74437;BME280;62868;52.360;30.424;2022-11-20T12:59:20;1030.2;;;-0.1;60.5
74437;BME280;62868;52.360;30.424;2022-11-20T13:04:52;1030.1;;;-0.2;60.5
74437;BME280;62868;52.360;30.424;2022-11-20T13:09:50;1030;;;-0.3;60.7
74437;BME280;62868;52.360;30.424;2022-11-20T13:14:19;1029.9;;;-0.3;60.7
74437;BME280;62868;52.360;30.424;2022-11-20T13:19:49;1029.8;;;-0.4;60.9
74437;BME280;62868;52.360;30.424;2022-11-20T13:24:36;1029.8;;;-0.4;60.9
74437;BME280;62868;52.360;30.424;2022-11-20T13:29:37;1029.9;;;-0.6;61.1
74437;BME280;62868;52.360;30.424;2022-11-20T13:34:22;1029.9;;;-0.6;61.2
74437;BME280;62868;52.360;30.424;2022-11-20T13:39:12;1030;;;-0.7;61.2
74437;BME280;62868;52.360;30.424;2022-11-20T13:44:37;1030;;;-0.7;61.3
74437;BME280;62868;52.360;30.424;2022-11-20T13:49:46;1029.8;;;-0.7;61.4
74437;BME280;62868;52.360;30.424;2022-11-20T13:55:21;1029.7;;;-0.8;61.5
74437;BME280;62868;52.360;30.424;2022-11-20T13:59:49;1029.7;;;-0.8;61.6
74437;BME280;62868;52.360;30.424;2022-11-20T14:04:13;1029.6;;;-0.8;61.7
74437;BME280;62868;52.360;30.424;2022-11-20T14:09:34;1029.5;;;-0.8;61.7
74437;BME280;62868;52.360;30.424;2022-11-20T14:14:23;1029.6;;;-0.8;61.8
74437;BME280;62868;52.360;30.424;2022-11-20T14:19:32;1029.5;;;-0.8;61.9
74437;BME280;62868;52.360;30.424;2022-11-20T14:24:46;1029.4;;;-0.9;62
74437;BME280;62868;52.360;30.424;2022-11-20T14:29:12;1029.5;;;-1;62.1
74437;BME280;62868;52.360;30.424;2022-11-20T14:34:47;1029.5;;;-1;62.2
74437;BME280;62868;52.360;30.424;2022-11-20T14:39:35;1029.6;;;-0.9;62.3
74437;BME280;62868;52.360;30.424;2022-11-20T14:44:38;1029.4;;;-0.9;62.4
74437;BME280;62868;52.360;30.424;2022-11-20T14:49:22;1029.3;;;-1;62.5
74437;BME280;62868;52.360;30.424;2022-11-20T14:54:15;1029.3;;;-1.1;62.6
74437;BME280;62868;52.360;30.424;2022-11-20T14:59:25;1029.3;;;-1.1;62.7
74437;BME280;62868;52.360;30.424;2022-11-20T15:04:45;1029.2;;;-1.2;62.8
74437;BME280;62868;52.360;30.424;2022-11-20T15:09:13;1029.2;;;-1.2;62.9
74437;BME280;62868;52.360;30.424;2022-11-20T15:14:46;1029;;;-1.2;63
74437;BME280;62868;52.360;30.424;2022-11-20T15:19:02;1029;;;-1.3;63.1
74437;BME280;62868;52.360;30.424;2022-11-20T15:24:34;1029;;;-1.3;63.2
74437;BME280;62868;52.360;30.424;2022-11-20T15:29:02;1028.9;;;-1.2;63.2
74437;BME280;62868;52.360;30.424;2022-11-20T15:34:32;1028.8;;;-1.2;63.2
74437;BME280;62868;52.360;30.424;2022-11-20T15:39:42;1028.7;;;-1.2;63.3
74437;BME280;62868;52.360;30.424;2022-11-20T15:44:14;1028.7;;;-1.3;63.3
74437;BME280;62868;52.360;30.424;2022-11-20T15:49:48;1028.6;;;-1.3;63.4
74437;BME280;62868;52.360;30.424;2022-11-20T15:54:34;1028.6;;;-1.3;63.5
74437;BME280;62868;52.360;30.424;2022-11-20T15:59:36;1028.6;;;-1.4;63.6
74437;BME280;62868;52.360;30.424;2022-11-20T16:04:10;1028.6;;;-1.3;63.7
74437;BME280;62868;52.360;30.424;2022-11-20T16:09:12;1028.6;;;-1.3;63.7
74437;BME280;62868;52.360;30.424;2022-11-20T16:14:22;1028.6;;;-1.3;63.8
74437;BME280;62868;52.360;30.424;2022-11-20T16:19:46;1028.6;;;-1.4;63.9
74437;BME280;62868;52.360;30.424;2022-11-20T16:24:13;1028.6;;;-1.4;63.9
74437;BME280;62868;52.360;30.424;2022-11-20T16:29:46;1028.6;;;-1.4;64
74437;BME280;62868;52.360;30.424;2022-11-20T16:34:24;1028.6;;;-1.4;64.1
74437;BME280;62868;52.360;30.424;2022-11-20T16:39:34;1028.6;;;-1.4;64.1
74437;BME280;62868;52.360;30.424;2022-11-20T16:44:24;1028.5;;;-1.4;64.1
74437;BME280;62868;52.360;30.424;2022-11-20T16:49:32;1028.5;;;-1.4;64.2
74437;BME280;62868;52.360;30.424;2022-11-20T16:54:46;1028.6;;;-1.4;64.2
74437;BME280;62868;52.360;30.424;2022-11-20T16:59:20;1028.7;;;-1.3;64.2
74437;BME280;62868;52.360;30.424;2022-11-20T17:04:40;1028.5;;;-1.3;64.3
74437;BME280;62868;52.360;30.424;2022-11-20T17:09:30;1028.4;;;-1.4;64.3
74437;BME280;62868;52.360;30.424;2022-11-20T17:14:36;1028.4;;;-1.4;64.4
74437;BME280;62868;52.360;30.424;2022-11-20T17:19:13;1028.4;;;-1.4;64.5
74437;BME280;62868;52.360;30.424;2022-11-20T17:24:03;1028.5;;;-1.5;64.6
74437;BME280;62868;52.360;30.424;2022-11-20T17:29:13;1028.5;;;-1.5;64.6
74437;BME280;62868;52.360;30.424;2022-11-20T17:34:44;1028.4;;;-1.4;64.7
74437;BME280;62868;52.360;30.424;2022-11-20T17:39:13;1028.3;;;-1.3;64.7
74437;BME280;62868;52.360;30.424;2022-11-20T17:44:46;1028.1;;;-1.3;64.7
74437;BME280;62868;52.360;30.424;2022-11-20T17:49:24;1027.9;;;-1.3;64.7
74437;BME280;62868;52.360;30.424;2022-11-20T17:54:12;1027.9;;;-1.3;64.8
74437;BME280;62868;52.360;30.424;2022-11-20T17:59:24;1027.7;;;-1.4;64.9
74437;BME280;62868;52.360;30.424;2022-11-20T18:04:32;1027.6;;;-1.4;64.9
74437;BME280;62868;52.360;30.424;2022-11-20T18:09:34;1027.6;;;-1.5;65
74437;BME280;62868;52.360;30.424;2022-11-20T18:14:03;1027.6;;;-1.5;65.1
74437;BME280;62868;52.360;30.424;2022-11-20T18:19:15;1027.6;;;-1.5;65.1
74437;BME280;62868;52.360;30.424;2022-11-20T18:24:46;1027.5;;;-1.4;65.1
74437;BME280;62868;52.360;30.424;2022-11-20T18:29:36;1027.5;;;-1.4;65
74437;BME280;62868;52.360;30.424;2022-11-20T18:34:02;1027.5;;;-1.4;65.1
74437;BME280;62868;52.360;30.424;2022-11-20T18:39:03;1027.3;;;-1.4;65.1
74437;BME280;62868;52.360;30.424;2022-11-20T18:44:13;1027.3;;;-1.4;65.1
74437;BME280;62868;52.360;30.424;2022-11-20T18:49:47;1027.4;;;-1.4;65.2
74437;BME280;62868;52.360;30.424;2022-11-20T18:54:23;1027.6;;;-1.4;65.1
74437;BME280;62868;52.360;30.424;2022-11-20T18:59:47;1027.7;;;-1.4;65.2
74437;BME280;62868;52.360;30.424;2022-11-20T19:04:13;1027.6;;;-1.4;65.2
74437;BME280;62868;52.360;30.424;2022-11-20T19:09:22;1027.5;;;-1.4;65.2
74437;BME280;62868;52.360;30.424;2022-11-20T19:14:22;1027.5;;;-1.4;65.2
74437;BME280;62868;52.360;30.424;2022-11-20T19:19:24;1027.4;;;-1.4;65.2
74437;BME280;62868;52.360;30.424;2022-11-20T19:24:35;1027.3;;;-1.5;65.3
74437;BME280;62868;52.360;30.424;2022-11-20T19:29:15;1027.2;;;-1.5;65.4
74437;BME280;62868;52.360;30.424;2022-11-20T19:34:02;1027.1;;;-1.5;65.5
74437;BME280;62868;52.360;30.424;2022-11-20T19:39:46;1027.1;;;-1.6;65.5
74437;BME280;62868;52.360;30.424;2022-11-20T19:44:36;1027.1;;;-1.6;65.6
74437;BME280;62868;52.360;30.424;2022-11-20T19:49:20;1027.1;;;-1.6;65.7
74437;BME280;62868;52.360;30.424;2022-11-20T19:54:03;1027.1;;;-1.6;65.8
74437;BME280;62868;52.360;30.424;2022-11-20T19:59:15;1027.1;;;-1.6;65.7
74437;BME280;62868;52.360;30.424;2022-11-20T20:04:44;1027;;;-1.6;65.8
74437;BME280;62868;52.360;30.424;2022-11-20T20:09:20;1026.9;;;-1.7;65.8
74437;BME280;62868;52.360;30.424;2022-11-20T20:14:48;1026.9;;;-1.7;65.9
74437;BME280;62868;52.360;30.424;2022-11-20T20:19:13;1026.8;;;-1.7;65.9
74437;BME280;62868;52.360;30.424;2022-11-20T20:24:15;1026.7;;;-1.7;66
74437;BME280;62868;52.360;30.424;2022-11-20T20:29:24;1026.6;;;-1.7;66.1
74437;BME280;62868;52.360;30.424;2022-11-20T20:34:32;1026.5;;;-1.7;66.1
74437;BME280;62868;52.360;30.424;2022-11-20T20:39:34;1026.3;;;-1.8;66.2
74437;BME280;62868;52.360;30.424;2022-11-20T20:44:13;1026.3;;;-1.7;66.2
74437;BME280;62868;52.360;30.424;2022-11-20T20:49:02;1026.2;;;-1.7;66.2
74437;BME280;62868;52.360;30.424;2022-11-20T20:54:46;1026.2;;;-1.8;66.3
74437;BME280;62868;52.360;30.424;2022-11-20T20:59:14;1026.2;;;-1.8;66.4
74437;BME280;62868;52.360;30.424;2022-11-20T21:04:21;1026.2;;;-1.8;66.4
74437;BME280;62868;52.360;30.424;2022-11-20T21:09:13;1026.1;;;-1.7;66.5
74437;BME280;62868;52.360;30.424;2022-11-20T21:14:03;1026.2;;;-1.7;66.5
74437;BME280;62868;52.360;30.424;2022-11-20T21:19:45;1026.4;;;-1.7;66.5
74437;BME280;62868;52.360;30.424;2022-11-20T21:24:33;1026.3;;;-1.7;66.5
74437;BME280;62868;52.360;30.424;2022-11-20T21:29:46;1026.2;;;-1.8;66.6
74437;BME280;62868;52.360;30.424;2022-11-20T21:34:25;1026.1;;;-1.8;66.6
74437;BME280;62868;52.360;30.424;2022-11-20T21:39:23;1026.2;;;-1.8;66.7
74437;BME280;62868;52.360;30.424;2022-11-20T21:44:23;1026.3;;;-1.8;66.7
74437;BME280;62868;52.360;30.424;2022-11-20T21:49:33;1026.2;;;-1.7;66.6
74437;BME280;62868;52.360;30.424;2022-11-20T21:54:36;1026.2;;;-1.7;66.7
74437;BME280;62868;52.360;30.424;2022-11-20T21:59:10;1026.1;;;-1.6;66.6
74437;BME280;62868;52.360;30.424;2022-11-20T22:04:23;1026.1;;;-1.6;66.7
74437;BME280;62868;52.360;30.424;2022-11-20T22:09:45;1026.1;;;-1.5;66.6
74437;BME280;62868;52.360;30.424;2022-11-20T22:14:45;1026.1;;;-1.5;66.6
74437;BME280;62868;52.360;30.424;2022-11-20T22:19:17;1026.1;;;-1.4;66.6
74437;BME280;62868;52.360;30.424;2022-11-20T22:24:31;1026.2;;;-1.4;66.6
74437;BME280;62868;52.360;30.424;2022-11-20T22:29:27;1026.3;;;-1.3;66.6
74437;BME280;62868;52.360;30.424;2022-11-20T22:34:43;1026.3;;;-1.3;66.5
74437;BME280;62868;52.360;30.424;2022-11-20T22:39:21;1026.2;;;-1.3;66.5
74437;BME280;62868;52.360;30.424;2022-11-20T22:44:31;1026.2;;;-1.3;66.5
74437;BME280;62868;52.360;30.424;2022-11-20T22:49:19;1026;;;-1.3;66.5
74437;BME280;62868;52.360;30.424;2022-11-20T22:54:21;1025.9;;;-1.3;66.5
74437;BME280;62868;52.360;30.424;2022-11-20T22:59:09;1025.8;;;-1.4;66.5
74437;BME280;62868;52.360;30.424;2022-11-20T23:04:21;1025.7;;;-1.4;66.5
74437;BME280;62868;52.360;30.424;2022-11-20T23:09:31;1025.7;;;-1.4;66.5
74437;BME280;62868;52.360;30.424;2022-11-20T23:14:29;1025.7;;;-1.5;66.6
74437;BME280;62868;52.360;30.424;2022-11-20T23:19:33;1025.6;;;-1.4;66.6
74437;BME280;62868;52.360;30.424;2022-11-20T23:24:43;1025.5;;;-1.5;66.6
74437;BME280;62868;52.360;30.424;2022-11-20T23:29:29;1025.5;;;-1.5;66.7
74437;BME280;62868;52.360;30.424;2022-11-20T23:34:31;1025.4;;;-1.5;66.7
74437;BME280;62868;52.360;30.424;2022-11-20T23:39:31;1025.3;;;-1.5;66.7
74437;BME280;62868;52.360;30.424;2022-11-20T23:44:03;1025.2;;;-1.5;66.7
74437;BME280;62868;52.360;30.424;2022-11-20T23:49:43;1025.1;;;-1.6;66.8
74437;BME280;62868;52.360;30.424;2022-11-20T23:54:09;1025.2;;;-1.5;66.8
74437;BME280;62868;52.360;30.424;2022-11-20T23:59:21;1025.1;;;-1.5;66.8
